createdAt,value
2022-08-31T00:00:31.361Z,21.80
2022-08-31T00:03:16.741Z,21.80
2022-08-31T00:05:43.569Z,21.80
2022-08-31T00:08:10.446Z,21.90
2022-08-31T00:10:41.103Z,21.90
2022-08-31T00:13:10.158Z,21.90
2022-08-31T00:15:36.991Z,21.90
2022-08-31T00:18:04.678Z,22.00
2022-08-31T00:20:33.447Z,22.00
2022-08-31T00:23:06.298Z,21.90
2022-08-31T00:25:34.719Z,21.90
2022-08-31T00:28:02.442Z,21.90
2022-08-31T00:30:30.560Z,21.70
2022-08-31T00:32:58.585Z,21.70
2022-08-31T00:35:28.413Z,21.60
2022-08-31T00:37:55.630Z,21.60
2022-08-31T00:40:23.935Z,21.40
2022-08-31T00:42:51.367Z,21.30
2022-08-31T00:45:18.697Z,21.20
2022-08-31T00:47:45.469Z,21.10
2022-08-31T00:50:15.916Z,21.00
2022-08-31T00:52:50.916Z,20.90
2022-08-31T00:55:25.655Z,20.80
2022-08-31T00:57:56.090Z,20.80
2022-08-31T01:00:26.249Z,20.80
2022-08-31T01:02:53.978Z,20.80
2022-08-31T01:05:20.962Z,20.70
2022-08-31T01:07:56.203Z,20.70
2022-08-31T01:10:25.952Z,20.70
2022-08-31T01:12:54.721Z,20.70
2022-08-31T01:15:22.807Z,20.60
2022-08-31T01:17:52.626Z,20.60
2022-08-31T01:20:29.033Z,20.60
2022-08-31T01:23:16.260Z,20.50
2022-08-31T01:25:46.239Z,20.40
2022-08-31T01:28:13.411Z,20.30
2022-08-31T01:30:41.999Z,20.30
2022-08-31T01:33:11.909Z,20.20
2022-08-31T01:35:44.483Z,20.20
2022-08-31T01:38:13.267Z,20.20
2022-08-31T01:40:49.402Z,20.10
2022-08-31T01:43:16.606Z,20.20
2022-08-31T01:45:43.762Z,20.20
2022-08-31T01:48:11.168Z,20.10
2022-08-31T01:50:38.359Z,20.00
2022-08-31T01:53:05.751Z,19.90
2022-08-31T01:55:32.848Z,19.90
2022-08-31T01:58:00.790Z,19.90
2022-08-31T02:01:00.599Z,19.90
2022-08-31T02:03:27.596Z,19.90
2022-08-31T02:08:20.331Z,19.80
2022-08-31T02:10:47.793Z,19.90
2022-08-31T02:13:14.775Z,19.90
2022-08-31T02:15:41.804Z,19.90
2022-08-31T02:18:08.642Z,19.90
2022-08-31T02:20:39.257Z,19.70
2022-08-31T02:23:06.350Z,19.60
2022-08-31T02:25:34.905Z,19.60
2022-08-31T02:28:03.933Z,19.70
2022-08-31T02:30:31.235Z,19.70
2022-08-31T02:32:58.240Z,19.60
2022-08-31T02:35:25.151Z,19.60
2022-08-31T02:37:52.029Z,19.70
2022-08-31T02:40:19.121Z,19.70
2022-08-31T02:42:52.734Z,19.80
2022-08-31T02:45:22.966Z,19.80
2022-08-31T02:47:50.129Z,19.70
2022-08-31T02:50:28.024Z,19.70
2022-08-31T02:52:56.775Z,19.80
2022-08-31T02:55:25.478Z,19.80
2022-08-31T02:57:53.329Z,19.90
2022-08-31T03:00:23.594Z,19.80
2022-08-31T03:02:51.074Z,19.80
2022-08-31T03:05:18.490Z,19.80
2022-08-31T03:07:45.455Z,19.80
2022-08-31T03:10:14.779Z,19.80
2022-08-31T03:12:41.993Z,19.80
2022-08-31T03:15:10.414Z,19.80
2022-08-31T03:17:37.719Z,19.80
2022-08-31T03:20:07.256Z,19.80
2022-08-31T03:22:34.840Z,19.70
2022-08-31T03:25:05.785Z,19.80
2022-08-31T03:27:32.790Z,19.80
2022-08-31T03:30:00.745Z,19.70
2022-08-31T03:32:31.981Z,19.70
2022-08-31T03:35:00.939Z,19.70
2022-08-31T03:37:28.707Z,19.70
2022-08-31T03:39:59.753Z,19.70
2022-08-31T03:42:26.940Z,19.70
2022-08-31T03:44:54.846Z,19.60
2022-08-31T03:47:28.415Z,19.70
2022-08-31T03:49:56.040Z,19.70
2022-08-31T03:52:26.024Z,19.60
2022-08-31T03:55:01.096Z,19.70
2022-08-31T03:57:28.265Z,19.70
2022-08-31T03:59:57.615Z,19.70
2022-08-31T04:02:43.733Z,19.60
2022-08-31T04:05:30.643Z,19.50
2022-08-31T04:08:18.142Z,19.40
2022-08-31T04:10:47.592Z,19.40
2022-08-31T04:13:34.312Z,19.30
2022-08-31T04:16:22.597Z,19.30
2022-08-31T04:19:08.735Z,19.20
2022-08-31T04:21:44.351Z,19.20
2022-08-31T04:24:12.358Z,19.20
2022-08-31T04:26:40.834Z,19.20
2022-08-31T04:29:13.106Z,19.20
2022-08-31T04:31:41.259Z,19.20
2022-08-31T04:34:08.669Z,19.10
2022-08-31T04:36:35.616Z,19.10
2022-08-31T04:39:04.136Z,19.20
2022-08-31T04:41:33.395Z,19.10
2022-08-31T04:44:01.542Z,19.10
2022-08-31T04:46:30.226Z,19.10
2022-08-31T04:48:57.918Z,19.10
2022-08-31T04:51:35.509Z,19.10
2022-08-31T04:54:04.839Z,19.10
2022-08-31T04:56:34.584Z,19.10
2022-08-31T04:59:04.415Z,19.00
2022-08-31T05:01:43.340Z,19.00
2022-08-31T05:04:33.828Z,19.10
2022-08-31T05:07:00.663Z,19.10
2022-08-31T05:09:29.383Z,19.10
2022-08-31T05:11:56.601Z,19.00
2022-08-31T05:14:25.082Z,19.10
2022-08-31T05:17:01.265Z,19.10
2022-08-31T05:19:31.938Z,19.20
2022-08-31T05:21:59.178Z,19.20
2022-08-31T05:24:26.534Z,19.20
2022-08-31T05:26:56.128Z,19.20
2022-08-31T05:29:25.843Z,19.20
2022-08-31T05:32:13.006Z,19.10
2022-08-31T05:34:40.056Z,19.30
2022-08-31T05:37:06.965Z,19.30
2022-08-31T05:39:34.428Z,19.30
2022-08-31T05:42:01.383Z,19.40
2022-08-31T05:44:29.219Z,19.30
2022-08-31T05:47:03.455Z,19.30
2022-08-31T05:49:32.349Z,19.30
2022-08-31T05:52:00.909Z,19.30
2022-08-31T05:54:29.563Z,19.30
2022-08-31T05:57:01.012Z,19.30
2022-08-31T05:59:31.085Z,19.30
2022-08-31T06:01:59.051Z,19.40
2022-08-31T06:04:28.398Z,19.30
2022-08-31T06:06:55.549Z,19.30
2022-08-31T06:09:25.763Z,19.30
2022-08-31T06:11:54.179Z,19.30
2022-08-31T06:14:22.932Z,19.30
2022-08-31T06:16:51.164Z,19.30
2022-08-31T06:19:20.513Z,19.30
2022-08-31T06:21:51.326Z,19.20
2022-08-31T06:24:24.408Z,19.40
2022-08-31T06:26:58.484Z,19.40
2022-08-31T06:29:32.341Z,19.50
2022-08-31T06:32:06.092Z,19.50
2022-08-31T06:34:33.642Z,19.50
2022-08-31T06:37:07.264Z,19.50
2022-08-31T06:39:54.205Z,19.50
2022-08-31T06:42:50.594Z,19.60
2022-08-31T06:45:29.502Z,19.60
2022-08-31T06:48:04.458Z,19.60
2022-08-31T06:50:32.451Z,19.70
2022-08-31T06:52:59.305Z,19.60
2022-08-31T06:55:48.977Z,19.60
2022-08-31T06:58:35.063Z,19.60
2022-08-31T07:01:10.200Z,19.70
2022-08-31T07:03:59.282Z,19.70
2022-08-31T07:06:50.619Z,19.70
2022-08-31T07:09:18.266Z,19.70
2022-08-31T07:11:47.833Z,19.70
2022-08-31T07:14:17.504Z,19.80
2022-08-31T07:16:45.581Z,19.90
2022-08-31T07:19:14.603Z,20.10
2022-08-31T07:21:47.885Z,20.20
2022-08-31T07:24:20.426Z,20.30
2022-08-31T07:26:49.833Z,20.30
2022-08-31T07:29:23.106Z,20.50
2022-08-31T07:31:50.467Z,20.60
2022-08-31T07:34:21.231Z,20.50
2022-08-31T07:37:23.473Z,20.50
2022-08-31T07:40:11.261Z,20.60
2022-08-31T07:42:43.770Z,20.60
2022-08-31T07:45:22.900Z,20.70
2022-08-31T07:47:55.040Z,20.90
2022-08-31T07:50:27.358Z,21.00
2022-08-31T07:53:24.775Z,21.00
2022-08-31T07:56:00.456Z,21.00
2022-08-31T07:58:40.199Z,21.00
2022-08-31T08:01:08.264Z,20.90
2022-08-31T08:03:35.885Z,20.70
2022-08-31T08:06:28.600Z,20.60
2022-08-31T08:09:27.046Z,20.40
2022-08-31T08:12:08.268Z,20.20
2022-08-31T08:14:58.393Z,20.00
2022-08-31T08:17:36.925Z,19.70
2022-08-31T08:20:11.646Z,19.30
2022-08-31T08:22:54.253Z,19.10
2022-08-31T08:25:34.455Z,18.90
2022-08-31T08:28:39.103Z,18.80
2022-08-31T08:31:11.356Z,18.80
2022-08-31T08:33:38.456Z,18.70
2022-08-31T08:36:08.254Z,18.70
2022-08-31T08:38:39.175Z,18.70
2022-08-31T08:41:13.157Z,18.60
2022-08-31T08:43:43.934Z,18.60
2022-08-31T08:46:33.343Z,18.50
2022-08-31T08:49:28.449Z,18.50
2022-08-31T08:52:10.983Z,18.40
2022-08-31T08:54:42.601Z,18.30
2022-08-31T08:57:15.124Z,18.30
2022-08-31T08:59:45.217Z,18.30
2022-08-31T09:02:21.494Z,18.30
2022-08-31T09:04:59.863Z,18.30
2022-08-31T09:07:52.314Z,18.30
2022-08-31T09:10:33.555Z,18.40
2022-08-31T09:13:19.704Z,18.40
2022-08-31T09:15:55.267Z,18.40
2022-08-31T09:19:03.323Z,18.30
2022-08-31T09:21:36.981Z,18.40
2022-08-31T09:24:17.086Z,18.60
2022-08-31T09:27:19.241Z,18.70
2022-08-31T09:29:47.728Z,18.70
2022-08-31T09:32:24.840Z,18.60
2022-08-31T09:35:01.620Z,18.60
2022-08-31T09:37:38.105Z,18.60
2022-08-31T09:40:23.273Z,18.70
2022-08-31T09:43:17.787Z,18.70
2022-08-31T09:46:03.800Z,18.60
2022-08-31T09:48:44.042Z,18.60
2022-08-31T09:51:20.602Z,18.80
2022-08-31T09:54:06.606Z,18.80
2022-08-31T09:56:57.596Z,18.90
2022-08-31T09:59:38.808Z,18.90
2022-08-31T10:02:23.172Z,19.00
2022-08-31T10:05:27.486Z,19.10
2022-08-31T10:08:07.482Z,19.10
2022-08-31T10:10:39.201Z,19.30
2022-08-31T10:13:27.489Z,19.40
2022-08-31T10:16:00.116Z,19.40
2022-08-31T10:18:39.536Z,19.50
2022-08-31T10:21:12.230Z,19.80
2022-08-31T10:23:56.457Z,19.80
2022-08-31T10:26:36.809Z,19.70
2022-08-31T10:29:20.762Z,19.80
2022-08-31T10:31:53.491Z,19.90
2022-08-31T10:34:47.094Z,20.00
2022-08-31T10:37:58.629Z,19.90
2022-08-31T10:40:32.133Z,20.10
2022-08-31T10:43:18.749Z,20.20
2022-08-31T10:45:50.885Z,20.20
2022-08-31T10:48:21.427Z,20.40
2022-08-31T10:51:13.262Z,20.30
2022-08-31T10:54:08.479Z,20.20
2022-08-31T10:57:01.210Z,20.20
2022-08-31T11:00:08.594Z,20.30
2022-08-31T11:02:41.236Z,20.50
2022-08-31T11:05:27.011Z,20.60
2022-08-31T11:08:27.462Z,20.60
2022-08-31T11:10:59.186Z,20.60
2022-08-31T11:13:48.658Z,20.70
2022-08-31T11:16:37.063Z,20.70
2022-08-31T11:19:26.402Z,20.70
2022-08-31T11:22:19.623Z,20.80
2022-08-31T11:24:58.569Z,20.70
2022-08-31T11:27:38.247Z,20.90
2022-08-31T11:30:24.428Z,21.00
2022-08-31T11:32:57.544Z,21.00
2022-08-31T11:36:05.382Z,20.90
2022-08-31T11:38:47.926Z,20.80
2022-08-31T11:41:48.635Z,20.90
2022-08-31T11:44:30.887Z,21.00
2022-08-31T11:47:07.372Z,20.80
2022-08-31T11:49:37.273Z,20.50
2022-08-31T11:52:10.428Z,20.70
2022-08-31T11:54:42.659Z,20.90
2022-08-31T11:57:15.912Z,20.90
2022-08-31T11:59:46.384Z,20.80
2022-08-31T12:02:43.712Z,20.70
2022-08-31T12:05:11.395Z,20.70
2022-08-31T12:07:46.322Z,20.70
2022-08-31T12:10:36.575Z,20.60
2022-08-31T12:13:07.456Z,20.70
2022-08-31T12:15:43.352Z,20.70
2022-08-31T12:18:32.050Z,20.60
2022-08-31T12:21:41.423Z,20.60
2022-08-31T12:24:51.299Z,20.70
2022-08-31T12:27:35.449Z,20.70
2022-08-31T12:30:22.992Z,20.80
2022-08-31T12:33:01.734Z,20.80
2022-08-31T12:35:31.639Z,20.90
2022-08-31T12:38:19.939Z,21.00
2022-08-31T12:40:57.471Z,21.00
2022-08-31T12:43:46.546Z,21.10
2022-08-31T12:46:37.574Z,21.20
2022-08-31T12:49:24.888Z,21.30
2022-08-31T12:52:09.679Z,21.30
2022-08-31T12:55:15.575Z,21.60
2022-08-31T12:57:51.084Z,21.70
2022-08-31T13:00:31.963Z,21.90
2022-08-31T13:03:06.539Z,22.10
2022-08-31T13:05:36.693Z,22.50
2022-08-31T13:08:24.164Z,22.30
2022-08-31T13:10:51.560Z,22.10
2022-08-31T13:13:28.342Z,22.10
2022-08-31T13:16:08.190Z,21.90
2022-08-31T13:18:36.104Z,21.90
2022-08-31T13:21:06.812Z,21.80
2022-08-31T13:23:40.965Z,21.80
2022-08-31T13:26:21.364Z,21.70
2022-08-31T13:28:52.565Z,21.80
2022-08-31T13:31:24.922Z,21.80
2022-08-31T13:33:59.247Z,22.00
2022-08-31T13:36:58.431Z,21.90
2022-08-31T13:39:39.140Z,22.30
2022-08-31T13:42:37.717Z,22.50
2022-08-31T13:45:09.149Z,22.60
2022-08-31T13:47:47.522Z,22.60
2022-08-31T13:50:32.731Z,22.60
2022-08-31T13:55:52.311Z,23.00
2022-08-31T13:58:29.500Z,23.00
2022-08-31T14:01:21.366Z,22.90
2022-08-31T14:03:59.475Z,23.00
2022-08-31T14:06:32.278Z,23.10
2022-08-31T14:09:19.394Z,23.10
2022-08-31T14:12:01.286Z,23.20
2022-08-31T14:14:35.550Z,23.40
2022-08-31T14:17:03.365Z,23.40
2022-08-31T14:19:38.831Z,23.40
2022-08-31T14:22:26.412Z,23.50
2022-08-31T14:24:55.668Z,23.50
2022-08-31T14:27:24.030Z,23.40
2022-08-31T14:29:52.186Z,23.50
2022-08-31T14:32:19.992Z,23.40
2022-08-31T14:34:51.073Z,23.60
2022-08-31T14:37:28.785Z,23.70
2022-08-31T14:40:05.550Z,23.70
2022-08-31T14:42:38.126Z,23.70
2022-08-31T14:45:09.142Z,24.00
2022-08-31T14:47:41.789Z,24.00
2022-08-31T14:50:09.294Z,23.80
2022-08-31T14:52:39.789Z,23.80
2022-08-31T14:55:09.194Z,23.90
2022-08-31T14:57:36.546Z,24.00
2022-08-31T15:00:05.896Z,24.10
2022-08-31T15:02:34.546Z,24.30
2022-08-31T15:05:07.195Z,24.40
2022-08-31T15:07:37.454Z,24.50
2022-08-31T15:10:06.916Z,24.40
2022-08-31T15:12:34.819Z,24.20
2022-08-31T15:15:01.723Z,24.10
2022-08-31T15:17:33.686Z,24.10
2022-08-31T15:20:03.473Z,24.20
2022-08-31T15:22:31.420Z,24.20
2022-08-31T15:24:58.994Z,24.00
2022-08-31T15:27:28.747Z,23.90
2022-08-31T15:30:02.475Z,23.70
2022-08-31T15:32:29.332Z,23.70
2022-08-31T15:34:58.764Z,24.00
2022-08-31T15:37:30.760Z,24.10
2022-08-31T15:40:00.478Z,24.00
2022-08-31T15:42:29.344Z,23.90
2022-08-31T15:44:56.943Z,23.90
2022-08-31T15:47:43.625Z,23.80
2022-08-31T15:50:10.934Z,23.70
2022-08-31T15:52:45.733Z,23.60
2022-08-31T15:55:21.612Z,23.60
2022-08-31T15:57:48.850Z,23.70
2022-08-31T16:00:15.955Z,23.80
2022-08-31T16:02:43.856Z,23.80
2022-08-31T16:05:13.262Z,24.30
2022-08-31T16:07:41.432Z,24.80
2022-08-31T16:10:19.343Z,25.00
2022-08-31T16:12:47.756Z,24.90
2022-08-31T16:15:15.534Z,24.90
2022-08-31T16:17:42.776Z,24.90
2022-08-31T16:20:11.995Z,24.60
2022-08-31T16:22:40.147Z,24.20
2022-08-31T16:25:14.051Z,23.90
2022-08-31T16:27:41.637Z,23.60
2022-08-31T16:30:11.131Z,23.40
2022-08-31T16:32:38.519Z,23.20
2022-08-31T16:35:06.080Z,23.00
2022-08-31T16:37:33.772Z,22.80
2022-08-31T16:40:00.865Z,22.80
2022-08-31T16:42:27.719Z,22.70
2022-08-31T16:44:59.833Z,22.70
2022-08-31T16:47:29.045Z,22.50
2022-08-31T16:49:56.365Z,22.50
2022-08-31T16:52:27.270Z,22.30
2022-08-31T16:54:57.390Z,22.20
2022-08-31T16:57:27.708Z,22.20
2022-08-31T16:59:57.007Z,22.10
2022-08-31T17:02:25.301Z,22.10
2022-08-31T17:04:53.932Z,22.10
2022-08-31T17:07:24.203Z,22.00
2022-08-31T17:09:55.730Z,22.00
2022-08-31T17:12:25.910Z,21.80
2022-08-31T17:14:53.137Z,21.60
2022-08-31T17:17:22.916Z,21.60
2022-08-31T17:19:52.090Z,21.50
2022-08-31T17:22:27.044Z,21.50
2022-08-31T17:24:58.658Z,21.50
2022-08-31T17:27:27.016Z,21.40
2022-08-31T17:30:00.798Z,21.50
2022-08-31T17:32:28.356Z,21.40
2022-08-31T17:34:55.636Z,21.40
2022-08-31T17:37:26.825Z,21.30
2022-08-31T17:39:54.993Z,21.30
2022-08-31T17:42:26.920Z,21.30
2022-08-31T17:44:54.502Z,21.30
2022-08-31T17:47:23.260Z,21.20
2022-08-31T17:49:51.114Z,21.10
2022-08-31T17:52:21.605Z,21.10
2022-08-31T17:54:51.046Z,21.00
2022-08-31T17:57:21.243Z,21.00
2022-08-31T17:59:49.121Z,20.90
2022-08-31T18:02:27.630Z,20.80
2022-08-31T18:04:54.739Z,20.60
2022-08-31T18:07:21.762Z,20.60
2022-08-31T18:09:48.755Z,20.50
2022-08-31T18:12:18.223Z,20.50
2022-08-31T18:14:45.293Z,20.50
2022-08-31T18:17:16.283Z,20.40
2022-08-31T18:19:44.757Z,20.40
2022-08-31T18:22:14.520Z,20.40
2022-08-31T18:24:43.196Z,20.30
2022-08-31T18:27:11.842Z,20.30
2022-08-31T18:29:39.432Z,20.20
2022-08-31T18:32:07.506Z,20.10
2022-08-31T18:34:38.992Z,20.00
2022-08-31T18:37:07.364Z,20.00
2022-08-31T18:39:53.113Z,20.10
2022-08-31T18:42:39.699Z,20.00
2022-08-31T18:45:20.875Z,19.90
2022-08-31T18:50:45.217Z,19.80
2022-08-31T18:53:15.455Z,19.70
2022-08-31T18:55:43.642Z,19.70
2022-08-31T18:58:10.705Z,19.60
2022-08-31T19:00:38.111Z,19.60
2022-08-31T19:03:05.750Z,19.60
2022-08-31T19:05:33.035Z,19.50
2022-08-31T19:08:00.494Z,19.50
2022-08-31T19:10:28.253Z,19.50
2022-08-31T19:12:55.807Z,19.50
2022-08-31T19:15:25.627Z,19.40
2022-08-31T19:18:05.405Z,19.40
2022-08-31T19:20:33.427Z,19.40
2022-08-31T19:23:00.570Z,19.40
2022-08-31T19:25:27.748Z,19.30
2022-08-31T19:27:55.553Z,19.20
2022-08-31T19:30:27.805Z,19.10
2022-08-31T19:32:56.388Z,19.20
2022-08-31T19:35:26.911Z,19.10
2022-08-31T19:37:55.447Z,19.00
2022-08-31T19:40:22.795Z,18.90
2022-08-31T19:45:45.609Z,18.70
2022-08-31T19:48:13.422Z,18.50
2022-08-31T19:50:41.896Z,18.50
2022-08-31T19:53:13.458Z,18.40
2022-08-31T19:55:50.143Z,18.30
2022-08-31T19:58:18.585Z,18.20
2022-08-31T20:00:48.035Z,18.10
2022-08-31T20:03:15.863Z,18.10
2022-08-31T20:05:43.710Z,18.10
2022-08-31T20:08:11.078Z,18.10
2022-08-31T20:10:45.817Z,18.10
2022-08-31T20:13:13.264Z,18.10
2022-08-31T20:15:43.767Z,18.20
2022-08-31T20:18:14.140Z,18.20
2022-08-31T20:20:48.208Z,18.20
2022-08-31T20:23:18.008Z,18.30
2022-08-31T20:25:46.764Z,18.30
2022-08-31T20:28:17.825Z,18.50
2022-08-31T20:30:45.404Z,18.50
2022-08-31T20:33:12.326Z,18.50
2022-08-31T20:35:47.240Z,18.40
2022-08-31T20:38:16.421Z,18.40
2022-08-31T20:40:45.854Z,18.40
2022-08-31T20:43:13.849Z,18.40
2022-08-31T20:45:41.761Z,18.30
2022-08-31T20:48:28.757Z,18.30
2022-08-31T20:50:56.417Z,18.30
2022-08-31T20:53:39.051Z,18.40
2022-08-31T20:56:14.771Z,18.30
2022-08-31T20:58:45.932Z,18.30
2022-08-31T21:01:16.087Z,18.40
2022-08-31T21:03:43.316Z,18.40
2022-08-31T21:06:14.048Z,18.40
2022-08-31T21:08:42.508Z,18.40
2022-08-31T21:11:14.229Z,18.40
2022-08-31T21:13:42.867Z,18.50
2022-08-31T21:16:10.309Z,18.40
2022-08-31T21:18:38.052Z,18.40
2022-08-31T21:21:14.521Z,18.30
2022-08-31T21:23:41.369Z,18.20
2022-08-31T21:26:11.169Z,18.20
2022-08-31T21:28:38.517Z,18.20
2022-08-31T21:31:18.675Z,18.20
2022-08-31T21:33:59.567Z,18.20
2022-08-31T21:36:27.603Z,18.10
2022-08-31T21:38:56.731Z,18.10
2022-08-31T21:41:26.874Z,18.10
2022-08-31T21:43:55.872Z,18.10
2022-08-31T21:46:25.919Z,18.20
2022-08-31T21:48:55.449Z,18.10
2022-08-31T21:51:35.322Z,18.00
2022-08-31T21:54:06.051Z,18.00
2022-08-31T21:56:38.976Z,17.90
2022-08-31T21:59:06.924Z,17.90
2022-08-31T22:01:35.267Z,17.80
2022-08-31T22:04:04.504Z,17.80
2022-08-31T22:06:31.635Z,17.80
2022-08-31T22:09:01.301Z,17.80
2022-08-31T22:11:30.708Z,17.80
2022-08-31T22:13:58.985Z,17.80
2022-08-31T22:16:26.690Z,17.80
2022-08-31T22:19:02.113Z,17.70
2022-08-31T22:21:34.599Z,17.70
2022-08-31T22:24:07.864Z,17.70
2022-08-31T22:26:37.333Z,17.70
2022-08-31T22:29:06.503Z,17.70
2022-08-31T22:31:37.293Z,17.80
2022-08-31T22:34:08.499Z,17.70
2022-08-31T22:36:35.975Z,17.70
2022-08-31T22:39:12.242Z,17.70
2022-08-31T22:41:41.171Z,17.70
2022-08-31T22:44:11.426Z,17.60
2022-08-31T22:46:39.941Z,17.60
2022-08-31T22:49:07.764Z,17.60
2022-08-31T22:51:36.539Z,17.60
2022-08-31T22:54:04.031Z,17.60
2022-08-31T22:56:33.136Z,17.60
2022-08-31T22:59:08.172Z,17.50
2022-08-31T23:01:38.982Z,17.50
2022-08-31T23:04:07.859Z,17.60
2022-08-31T23:06:36.551Z,17.60
2022-08-31T23:09:07.548Z,17.50
2022-08-31T23:11:34.842Z,17.50
2022-08-31T23:14:07.254Z,17.50
2022-08-31T23:16:38.140Z,17.40
2022-08-31T23:19:12.438Z,17.40
2022-08-31T23:21:46.058Z,17.50
2022-08-31T23:24:20.086Z,17.40
2022-08-31T23:26:48.123Z,17.40
2022-08-31T23:29:18.336Z,17.30
2022-08-31T23:31:48.670Z,17.30
2022-08-31T23:34:16.829Z,17.40
2022-08-31T23:36:49.215Z,17.30
2022-08-31T23:39:21.082Z,17.30
2022-08-31T23:41:48.899Z,17.20
2022-08-31T23:44:16.663Z,17.20
2022-08-31T23:46:43.847Z,17.20
2022-08-31T23:49:12.719Z,17.20
2022-08-31T23:51:39.928Z,17.20
2022-08-31T23:54:08.333Z,17.20
2022-08-31T23:56:37.884Z,17.20
2022-08-31T23:59:09.496Z,17.20
